Time;durP1;ratioP1;P1;durP2;ratioP2;P2;SDS_P1;SDS_P2;PMS_P1;PMS_P2;Temp;Humidity;BMP_temperature;BMP_pressure;BME280_temperature;BME280_humidity;BME280_pressure;Samples;Min_cycle;Max_cycle;Signal;HPM_P1;HPM_P2
2022/01/04 00:00:59;;;;;;;30.80;5.68;;;;;;;;;;5062833;28;20068;-71
2022/01/04 00:03:25;;;;;;;31.05;5.80;;;;;;;;;;5074963;28;20048;-71
2022/01/04 00:05:51;;;;;;;31.48;5.57;;;;;;;;;;5080679;28;20055;-71
2022/01/04 00:08:18;;;;;;;42.13;5.97;;;;;;;;;;5081052;28;20173;-75
2022/01/04 00:10:44;;;;;;;30.80;6.22;;;;;;;;;;5080191;27;20369;-76
2022/01/04 00:13:23;;;;;;;50.78;7.22;;;;;;;;;;5079505;28;20493;-71
2022/01/04 00:15:53;;;;;;;44.22;6.50;;;;;;;;;;5082861;28;20048;-72
2022/01/04 00:18:19;;;;;;;31.13;5.22;;;;;;;;;;5082901;28;20130;-71
2022/01/04 00:20:46;;;;;;;32.50;5.35;;;;;;;;;;5077132;28;20040;-71
2022/01/04 00:23:13;;;;;;;39.53;5.85;;;;;;;;;;5084040;28;20036;-72
2022/01/04 00:25:39;;;;;;;36.22;8.45;;;;;;;;;;5081455;28;20141;-71
2022/01/04 00:28:07;;;;;;;33.47;6.15;;;;;;;;;;5081019;28;20383;-71
2022/01/04 00:30:34;;;;;;;42.00;7.40;;;;;;;;;;5082415;28;20093;-71
2022/01/04 00:33:00;;;;;;;45.08;7.15;;;;;;;;;;5084345;28;20039;-71
2022/01/04 00:35:26;;;;;;;31.25;6.88;;;;;;;;;;5076989;28;20047;-71
2022/01/04 00:37:52;;;;;;;40.83;8.68;;;;;;;;;;5081062;28;20071;-71
2022/01/04 00:40:18;;;;;;;41.63;8.95;;;;;;;;;;5066042;28;20227;-71
2022/01/04 00:42:44;;;;;;;43.08;8.48;;;;;;;;;;5066695;28;20483;-74
2022/01/04 00:45:10;;;;;;;42.22;9.07;;;;;;;;;;5063663;28;20040;-75
2022/01/04 00:50:30;;;;;;;41.72;10.10;;;;;;;;;;5065164;28;20043;-71
2022/01/04 00:52:56;;;;;;;32.03;8.70;;;;;;;;;;5076797;28;20053;-71
2022/01/04 00:55:23;;;;;;;41.60;9.73;;;;;;;;;;5081657;28;20048;-71
2022/01/04 00:57:49;;;;;;;36.55;9.40;;;;;;;;;;5077608;28;20052;-71
2022/01/04 01:00:16;;;;;;;43.80;8.85;;;;;;;;;;5067286;28;20475;-71
2022/01/04 01:02:42;;;;;;;36.92;9.05;;;;;;;;;;5079301;28;20055;-75
2022/01/04 01:05:09;;;;;;;33.80;8.77;;;;;;;;;;5079859;28;20032;-72
2022/01/04 01:07:35;;;;;;;32.35;8.95;;;;;;;;;;5081276;28;20040;-71
2022/01/04 01:10:16;;;;;;;48.60;10.20;;;;;;;;;;5076872;28;20052;-82
2022/01/04 01:12:43;;;;;;;33.83;9.48;;;;;;;;;;5058438;28;20415;-72
2022/01/04 01:15:10;;;;;;;45.25;9.63;;;;;;;;;;5080951;28;20047;-71
2022/01/04 01:17:36;;;;;;;45.15;10.27;;;;;;;;;;5079155;28;20055;-71
2022/01/04 01:20:04;;;;;;;47.53;10.05;;;;;;;;;;5078692;28;20080;-80
2022/01/04 01:22:30;;;;;;;51.58;11.55;;;;;;;;;;5079517;28;20126;-73
2022/01/04 01:24:56;;;;;;;38.95;9.80;;;;;;;;;;5079637;28;20499;-72
2022/01/04 01:27:22;;;;;;;40.50;9.73;;;;;;;;;;5085878;28;20651;-71
2022/01/04 01:29:48;;;;;;;33.53;9.32;;;;;;;;;;5072528;28;20147;-73
2022/01/04 01:32:15;;;;;;;41.05;9.55;;;;;;;;;;5070642;28;20131;-71
2022/01/04 01:34:43;;;;;;;47.58;10.18;;;;;;;;;;5073249;28;20052;-71
2022/01/04 01:37:10;;;;;;;39.05;9.10;;;;;;;;;;5080720;28;20040;-71
2022/01/04 01:39:36;;;;;;;53.90;10.00;;;;;;;;;;5076509;28;20430;-76
2022/01/04 01:42:03;;;;;;;44.70;8.93;;;;;;;;;;5102912;27;20719;-71
2022/01/04 01:44:31;;;;;;;43.22;8.65;;;;;;;;;;5080530;28;20479;-71
2022/01/04 01:46:57;;;;;;;45.10;9.82;;;;;;;;;;5062356;28;20052;-78
2022/01/04 01:49:24;;;;;;;43.10;10.18;;;;;;;;;;5075419;28;20101;-72
2022/01/04 01:51:50;;;;;;;43.25;8.88;;;;;;;;;;5079754;28;20551;-71
2022/01/04 01:54:16;;;;;;;38.55;9.35;;;;;;;;;;5079826;28;20124;-71
2022/01/04 01:56:42;;;;;;;41.38;10.15;;;;;;;;;;5080113;28;20078;-72
2022/01/04 01:59:08;;;;;;;41.55;10.50;;;;;;;;;;5083220;28;20041;-71
2022/01/04 02:01:35;;;;;;;40.05;9.25;;;;;;;;;;5083951;28;20048;-71
2022/01/04 02:04:01;;;;;;;38.95;9.48;;;;;;;;;;5077711;28;20036;-71
2022/01/04 02:06:29;;;;;;;44.20;10.48;;;;;;;;;;5066619;28;20048;-80
2022/01/04 02:08:58;;;;;;;43.95;8.13;;;;;;;;;;5076292;28;20040;-72
2022/01/04 02:11:28;;;;;;;42.38;9.88;;;;;;;;;;5093856;28;20126;-75
2022/01/04 02:13:54;;;;;;;45.40;9.50;;;;;;;;;;5075903;28;22099;-71
2022/01/04 02:16:21;;;;;;;48.13;9.77;;;;;;;;;;5060421;28;20056;-76
2022/01/04 02:18:47;;;;;;;48.55;9.57;;;;;;;;;;5080490;28;20048;-75
2022/01/04 02:21:13;;;;;;;43.10;10.20;;;;;;;;;;5112430;27;20109;-71
2022/01/04 02:23:39;;;;;;;65.43;10.10;;;;;;;;;;5086405;28;20052;-71
2022/01/04 02:26:05;;;;;;;45.58;9.70;;;;;;;;;;5088582;28;20362;-72
2022/01/04 02:28:32;;;;;;;44.53;9.60;;;;;;;;;;5085102;28;20126;-71
2022/01/04 02:30:58;;;;;;;47.28;11.23;;;;;;;;;;5112116;27;20765;-73
2022/01/04 02:33:24;;;;;;;47.30;10.05;;;;;;;;;;5085883;28;20051;-71
2022/01/04 02:35:50;;;;;;;43.20;10.05;;;;;;;;;;5084736;28;20052;-76
2022/01/04 02:38:17;;;;;;;59.08;11.15;;;;;;;;;;5087848;28;20147;-72
2022/01/04 02:40:43;;;;;;;48.33;9.18;;;;;;;;;;5076606;28;20090;-71
2022/01/04 02:43:09;;;;;;;42.88;8.93;;;;;;;;;;5088196;28;20052;-72
2022/01/04 02:45:35;;;;;;;47.47;10.60;;;;;;;;;;5079715;28;20071;-79
2022/01/04 02:48:01;;;;;;;35.58;8.10;;;;;;;;;;5083548;28;20070;-71
2022/01/04 02:50:28;;;;;;;39.65;9.10;;;;;;;;;;5084238;28;20040;-79
2022/01/04 02:52:54;;;;;;;50.92;9.30;;;;;;;;;;5076986;28;20063;-73
2022/01/04 02:55:21;;;;;;;43.97;8.75;;;;;;;;;;5081175;28;20201;-73
2022/01/04 02:57:47;;;;;;;45.72;8.70;;;;;;;;;;5082250;28;20472;-72
2022/01/04 03:00:15;;;;;;;46.53;9.52;;;;;;;;;;5088246;28;20040;-76
2022/01/04 03:02:41;;;;;;;49.63;9.60;;;;;;;;;;5079077;28;20043;-72
2022/01/04 03:05:08;;;;;;;48.15;9.60;;;;;;;;;;5082517;28;20132;-72
2022/01/04 03:07:34;;;;;;;44.72;9.68;;;;;;;;;;5078105;28;20408;-72
2022/01/04 03:10:01;;;;;;;48.13;9.50;;;;;;;;;;5080694;28;20546;-80
2022/01/04 03:12:27;;;;;;;35.65;9.20;;;;;;;;;;5079625;28;20126;-72
2022/01/04 03:14:53;;;;;;;35.47;8.48;;;;;;;;;;5083825;28;20400;-79
2022/01/04 03:17:19;;;;;;;41.03;9.15;;;;;;;;;;5081993;28;20048;-72
2022/01/04 03:19:45;;;;;;;39.60;9.65;;;;;;;;;;5078911;28;20047;-72
2022/01/04 03:22:11;;;;;;;55.33;10.18;;;;;;;;;;5078305;28;20043;-72
2022/01/04 03:24:37;;;;;;;38.38;8.90;;;;;;;;;;5078150;28;20068;-71
2022/01/04 03:27:03;;;;;;;43.90;9.57;;;;;;;;;;5080071;28;20089;-72
2022/01/04 03:29:29;;;;;;;36.83;9.30;;;;;;;;;;5080375;28;20056;-75
2022/01/04 03:31:58;;;;;;;50.10;9.93;;;;;;;;;;5080140;28;20040;-72
2022/01/04 03:34:25;;;;;;;47.17;8.77;;;;;;;;;;5076971;28;20048;-71
2022/01/04 03:36:51;;;;;;;36.65;8.32;;;;;;;;;;5076191;28;20048;-73
2022/01/04 03:39:17;;;;;;;37.35;7.47;;;;;;;;;;5068986;28;20129;-72
2022/01/04 03:41:45;;;;;;;46.25;8.57;;;;;;;;;;5079807;28;20205;-71
2022/01/04 03:44:16;;;;;;;29.75;7.10;;;;;;;;;;5057719;28;20047;-71
2022/01/04 03:46:42;;;;;;;38.13;8.02;;;;;;;;;;5078858;28;20055;-72
2022/01/04 03:49:09;;;;;;;50.60;9.93;;;;;;;;;;5077900;28;20825;-74
2022/01/04 03:51:35;;;;;;;40.53;7.75;;;;;;;;;;5075556;28;20155;-72
2022/01/04 03:54:02;;;;;;;41.88;8.50;;;;;;;;;;5080628;28;20534;-72
2022/01/04 03:56:28;;;;;;;43.53;8.95;;;;;;;;;;5081621;28;20514;-76
2022/01/04 03:58:54;;;;;;;29.60;8.98;;;;;;;;;;5083409;28;20044;-72
2022/01/04 04:01:20;;;;;;;37.45;9.10;;;;;;;;;;5078280;28;20036;-72
2022/01/04 04:03:47;;;;;;;43.28;8.63;;;;;;;;;;5106157;27;20143;-79
2022/01/04 04:06:13;;;;;;;42.80;8.48;;;;;;;;;;5073242;28;20040;-78
2022/01/04 04:08:39;;;;;;;47.40;9.43;;;;;;;;;;5073735;28;20219;-72
2022/01/04 04:11:05;;;;;;;55.90;8.13;;;;;;;;;;5110860;27;20425;-81
2022/01/04 04:13:31;;;;;;;40.45;8.38;;;;;;;;;;5114322;27;20058;-71
2022/01/04 04:15:57;;;;;;;50.15;8.20;;;;;;;;;;5077699;28;20054;-72
2022/01/04 04:18:23;;;;;;;43.33;9.75;;;;;;;;;;5076873;28;20049;-72
2022/01/04 04:20:50;;;;;;;37.53;8.85;;;;;;;;;;5076809;28;20056;-76
2022/01/04 04:23:16;;;;;;;49.38;10.32;;;;;;;;;;5094682;28;20044;-72
2022/01/04 04:25:42;;;;;;;42.60;8.73;;;;;;;;;;5084218;28;20109;-72
2022/01/04 04:28:08;;;;;;;45.17;9.75;;;;;;;;;;5085300;28;20097;-77
2022/01/04 04:30:35;;;;;;;47.28;9.57;;;;;;;;;;5080950;28;20104;-72
2022/01/04 04:33:01;;;;;;;49.92;9.68;;;;;;;;;;5074442;28;20048;-71
2022/01/04 04:35:29;;;;;;;51.67;10.15;;;;;;;;;;5083819;28;20036;-72
2022/01/04 04:37:55;;;;;;;47.28;9.85;;;;;;;;;;5079797;28;20047;-72
2022/01/04 04:40:22;;;;;;;42.92;8.95;;;;;;;;;;5081720;28;20048;-73
2022/01/04 04:42:48;;;;;;;38.95;9.25;;;;;;;;;;5080055;28;20076;-73
2022/01/04 04:45:14;;;;;;;41.58;9.32;;;;;;;;;;5059350;28;20578;-73
2022/01/04 04:47:40;;;;;;;47.88;10.20;;;;;;;;;;5077768;28;20048;-72
2022/01/04 04:50:06;;;;;;;45.28;9.50;;;;;;;;;;5076905;28;20075;-73
2022/01/04 04:52:32;;;;;;;37.58;9.30;;;;;;;;;;5072098;28;20068;-73
2022/01/04 04:54:59;;;;;;;49.63;10.23;;;;;;;;;;5077244;28;20067;-72
2022/01/04 04:57:25;;;;;;;38.78;9.85;;;;;;;;;;5076780;28;20288;-74
2022/01/04 04:59:51;;;;;;;37.22;9.02;;;;;;;;;;5058910;28;20058;-77
2022/01/04 05:02:17;;;;;;;50.38;11.10;;;;;;;;;;5087373;28;20036;-73
2022/01/04 05:04:43;;;;;;;40.83;10.43;;;;;;;;;;5074827;28;20044;-81
2022/01/04 05:07:09;;;;;;;55.80;12.65;;;;;;;;;;5075043;28;20048;-73
2022/01/04 05:09:35;;;;;;;44.60;11.57;;;;;;;;;;5083377;28;20046;-72
2022/01/04 05:12:01;;;;;;;43.33;9.43;;;;;;;;;;5062722;28;20068;-72
2022/01/04 05:14:28;;;;;;;44.78;11.60;;;;;;;;;;5075625;28;20118;-72
2022/01/04 05:16:54;;;;;;;37.88;10.85;;;;;;;;;;5070026;28;20057;-72
2022/01/04 05:19:20;;;;;;;42.42;10.50;;;;;;;;;;5086711;28;20039;-78
2022/01/04 05:21:46;;;;;;;54.25;10.43;;;;;;;;;;5084904;28;20472;-72
2022/01/04 05:24:12;;;;;;;47.10;11.93;;;;;;;;;;5080947;28;20468;-73
2022/01/04 05:26:38;;;;;;;50.15;10.90;;;;;;;;;;5078363;28;20043;-79
2022/01/04 05:29:04;;;;;;;57.45;17.50;;;;;;;;;;5101980;27;20392;-73
2022/01/04 05:31:30;;;;;;;46.75;11.57;;;;;;;;;;5083296;28;20070;-73
2022/01/04 05:33:56;;;;;;;52.58;11.95;;;;;;;;;;5074391;28;20471;-72
2022/01/04 05:36:22;;;;;;;44.13;13.45;;;;;;;;;;5071452;28;20113;-71
2022/01/04 05:38:48;;;;;;;51.08;13.82;;;;;;;;;;5053612;28;20051;-72
2022/01/04 05:41:15;;;;;;;42.97;13.00;;;;;;;;;;5084935;28;20082;-72
2022/01/04 05:43:41;;;;;;;51.95;14.80;;;;;;;;;;5049152;28;20048;-78
2022/01/04 05:46:07;;;;;;;52.67;15.10;;;;;;;;;;5066279;28;20040;-74
2022/01/04 05:48:33;;;;;;;48.25;13.60;;;;;;;;;;5084674;28;20032;-70
2022/01/04 05:50:59;;;;;;;47.92;13.02;;;;;;;;;;5083395;28;20091;-71
2022/01/04 05:53:25;;;;;;;45.25;12.50;;;;;;;;;;5083840;28;20139;-80
2022/01/04 05:55:51;;;;;;;46.85;12.93;;;;;;;;;;5083499;28;20506;-71
2022/01/04 05:58:18;;;;;;;66.32;13.10;;;;;;;;;;5084512;28;20036;-71
2022/01/04 06:00:44;;;;;;;58.42;12.13;;;;;;;;;;5083454;28;20066;-72
2022/01/04 06:03:10;;;;;;;38.60;11.65;;;;;;;;;;5095971;28;20090;-72
2022/01/04 06:05:36;;;;;;;50.47;13.13;;;;;;;;;;5060705;28;20060;-72
2022/01/04 06:08:02;;;;;;;41.40;11.85;;;;;;;;;;5069984;28;20040;-75
2022/01/04 06:10:35;;;;;;;46.85;11.90;;;;;;;;;;5064290;28;20036;-75
2022/01/04 06:15:28;;;;;;;44.92;10.93;;;;;;;;;;5081301;28;20041;-80
2022/01/04 06:17:54;;;;;;;39.25;10.38;;;;;;;;;;5063115;28;20130;-73
2022/01/04 06:20:21;;;;;;;41.90;11.68;;;;;;;;;;5076222;28;20078;-72
2022/01/04 06:22:47;;;;;;;54.90;12.70;;;;;;;;;;5067534;28;20048;-71
2022/01/04 06:25:15;;;;;;;48.80;11.25;;;;;;;;;;5064136;28;20076;-72
2022/01/04 06:27:44;;;;;;;46.22;11.63;;;;;;;;;;5056906;28;20079;-72
2022/01/04 06:30:11;;;;;;;46.35;11.70;;;;;;;;;;5082144;28;20045;-73
2022/01/04 06:32:37;;;;;;;53.10;12.60;;;;;;;;;;5097536;28;20049;-80
2022/01/04 06:35:04;;;;;;;39.60;11.27;;;;;;;;;;5061190;28;20056;-73
2022/01/04 06:37:32;;;;;;;42.20;9.55;;;;;;;;;;5056868;28;20028;-77
2022/01/04 06:39:58;;;;;;;31.63;7.03;;;;;;;;;;5059327;28;20058;-73
2022/01/04 06:42:24;;;;;;;40.55;6.97;;;;;;;;;;5089808;28;20053;-75
2022/01/04 06:44:50;;;;;;;34.90;7.57;;;;;;;;;;5056149;28;20056;-71
2022/01/04 06:47:16;;;;;;;32.90;8.15;;;;;;;;;;5088106;28;20051;-70
2022/01/04 06:49:42;;;;;;;36.10;9.23;;;;;;;;;;5077350;28;20049;-71
2022/01/04 06:52:09;;;;;;;37.47;9.77;;;;;;;;;;5060728;28;20506;-71
2022/01/04 06:54:35;;;;;;;42.45;12.27;;;;;;;;;;5076927;28;20055;-71
2022/01/04 06:57:01;;;;;;;44.17;11.23;;;;;;;;;;5064196;28;20456;-70
2022/01/04 06:59:27;;;;;;;43.58;12.25;;;;;;;;;;5084353;28;20087;-76
2022/01/04 07:01:53;;;;;;;40.92;11.82;;;;;;;;;;5074427;28;20079;-74
2022/01/04 07:04:20;;;;;;;37.97;12.38;;;;;;;;;;5072551;28;20043;-79
2022/01/04 07:06:46;;;;;;;43.47;11.95;;;;;;;;;;5051228;28;20110;-83
2022/01/04 07:09:12;;;;;;;48.33;13.02;;;;;;;;;;5068795;28;20052;-72
2022/01/04 07:11:38;;;;;;;54.83;12.07;;;;;;;;;;5071735;28;20116;-74
2022/01/04 07:14:04;;;;;;;31.98;12.07;;;;;;;;;;5074022;28;20087;-71
2022/01/04 07:16:30;;;;;;;39.10;10.57;;;;;;;;;;5075593;28;20076;-73
2022/01/04 07:18:57;;;;;;;36.10;10.40;;;;;;;;;;5074500;28;20048;-76
2022/01/04 07:21:23;;;;;;;37.65;9.73;;;;;;;;;;5093782;28;20063;-73
2022/01/04 07:23:49;;;;;;;40.67;10.52;;;;;;;;;;5060814;28;20044;-75
2022/01/04 07:26:16;;;;;;;36.85;9.77;;;;;;;;;;5056644;28;20040;-73
2022/01/04 07:28:43;;;;;;;41.95;10.95;;;;;;;;;;5071707;28;20060;-74
2022/01/04 07:31:09;;;;;;;47.10;10.43;;;;;;;;;;5080973;28;20411;-72
2022/01/04 07:33:35;;;;;;;33.22;7.65;;;;;;;;;;5080759;28;20072;-73
2022/01/04 07:36:02;;;;;;;24.90;7.43;;;;;;;;;;5077360;28;20048;-78
2022/01/04 07:38:28;;;;;;;28.50;7.45;;;;;;;;;;5083162;28;20177;-72
2022/01/04 07:40:54;;;;;;;30.02;8.20;;;;;;;;;;5082835;28;20192;-75
2022/01/04 07:43:20;;;;;;;36.20;8.65;;;;;;;;;;5074599;28;20063;-72
2022/01/04 07:45:46;;;;;;;30.35;7.90;;;;;;;;;;5066699;28;20040;-72
2022/01/04 07:48:12;;;;;;;28.02;8.40;;;;;;;;;;5081739;28;20098;-72
2022/01/04 07:50:39;;;;;;;32.28;9.07;;;;;;;;;;5082464;28;20044;-72
2022/01/04 07:53:06;;;;;;;33.15;6.75;;;;;;;;;;5084088;28;20169;-72
2022/01/04 07:55:32;;;;;;;23.73;6.85;;;;;;;;;;5066364;28;21443;-73
2022/01/04 07:57:58;;;;;;;27.48;7.72;;;;;;;;;;5081819;28;20110;-77
2022/01/04 08:00:25;;;;;;;32.40;8.20;;;;;;;;;;5083068;28;20047;-73
2022/01/04 08:02:51;;;;;;;38.65;9.05;;;;;;;;;;5083065;28;20120;-72
2022/01/04 08:05:18;;;;;;;31.40;9.00;;;;;;;;;;5079909;28;20360;-81
2022/01/04 08:07:44;;;;;;;31.65;9.07;;;;;;;;;;5080257;28;20052;-71
2022/01/04 08:10:11;;;;;;;36.10;9.65;;;;;;;;;;5085986;28;20042;-72
2022/01/04 08:12:37;;;;;;;25.83;5.93;;;;;;;;;;5099670;28;20068;-81
2022/01/04 08:15:04;;;;;;;20.15;5.80;;;;;;;;;;5076386;28;20103;-76
2022/01/04 08:17:31;;;;;;;19.52;5.28;;;;;;;;;;5111616;27;20048;-73
2022/01/04 08:19:57;;;;;;;24.65;5.20;;;;;;;;;;5065440;28;20207;-72
2022/01/04 08:22:23;;;;;;;26.65;5.85;;;;;;;;;;5085653;28;20036;-73
2022/01/04 08:24:49;;;;;;;24.15;4.85;;;;;;;;;;5068415;28;20044;-74
2022/01/04 08:27:15;;;;;;;26.08;4.72;;;;;;;;;;5071016;28;20456;-73
2022/01/04 08:29:41;;;;;;;20.13;4.32;;;;;;;;;;5082334;28;20048;-73
2022/01/04 08:32:07;;;;;;;25.95;5.18;;;;;;;;;;5081802;28;20043;-73
2022/01/04 08:34:34;;;;;;;22.42;5.38;;;;;;;;;;5050357;28;20047;-75
2022/01/04 08:37:00;;;;;;;25.13;5.40;;;;;;;;;;5081293;28;20044;-72
2022/01/04 08:39:27;;;;;;;23.65;5.75;;;;;;;;;;5081420;28;20426;-73
2022/01/04 08:42:00;;;;;;;23.25;5.63;;;;;;;;;;5064857;28;20056;-73
2022/01/04 08:44:27;;;;;;;26.17;6.07;;;;;;;;;;5064843;28;20472;-72
2022/01/04 08:46:53;;;;;;;26.25;5.88;;;;;;;;;;5076516;28;20040;-73
2022/01/04 08:49:19;;;;;;;27.33;4.85;;;;;;;;;;5115400;27;20082;-73
2022/01/04 08:51:45;;;;;;;12.35;2.85;;;;;;;;;;5049938;28;20519;-74
2022/01/04 08:54:12;;;;;;;7.40;1.77;;;;;;;;;;5078628;28;20047;-73
2022/01/04 08:56:38;;;;;;;213.17;88.83;;;;;;;;;;5093817;28;20060;-75
2022/01/04 08:59:05;;;;;;;11.60;2.65;;;;;;;;;;5060603;28;20083;-73
2022/01/04 09:01:32;;;;;;;8.32;1.95;;;;;;;;;;5078230;28;20376;-73
2022/01/04 09:03:58;;;;;;;7.13;1.38;;;;;;;;;;5084945;28;20123;-73
2022/01/04 09:06:25;;;;;;;7.40;1.40;;;;;;;;;;5079565;28;20056;-74
2022/01/04 09:08:55;;;;;;;6.72;2.45;;;;;;;;;;5112100;28;20357;-73
2022/01/04 09:11:21;;;;;;;8.80;1.40;;;;;;;;;;5064871;28;20113;-73
2022/01/04 09:13:49;;;;;;;13.60;1.95;;;;;;;;;;5063916;28;20127;-76
2022/01/04 09:18:48;;;;;;;12.00;1.13;;;;;;;;;;5085032;28;20547;-76
2022/01/04 09:21:15;;;;;;;5.47;0.85;;;;;;;;;;5066903;28;20044;-74
2022/01/04 09:23:42;;;;;;;10.13;1.05;;;;;;;;;;5082409;28;20044;-74
2022/01/04 09:26:09;;;;;;;10.88;1.17;;;;;;;;;;5067440;28;20441;-77
2022/01/04 09:28:35;;;;;;;12.20;1.00;;;;;;;;;;5063538;28;20048;-76
2022/01/04 09:31:02;;;;;;;4.93;0.80;;;;;;;;;;5065930;28;20040;-73
2022/01/04 09:33:29;;;;;;;5.75;1.15;;;;;;;;;;5102719;28;20055;-74
2022/01/04 09:35:55;;;;;;;9.25;1.00;;;;;;;;;;5084106;28;20081;-73
2022/01/04 09:38:21;;;;;;;10.80;1.75;;;;;;;;;;5067830;28;20123;-73
2022/01/04 09:40:49;;;;;;;4.53;1.00;;;;;;;;;;5083001;28;20098;-78
2022/01/04 09:43:15;;;;;;;7.35;1.33;;;;;;;;;;5065685;28;20047;-73
2022/01/04 09:45:42;;;;;;;12.85;1.27;;;;;;;;;;5052065;28;20367;-72
2022/01/04 09:48:08;;;;;;;7.65;0.98;;;;;;;;;;5066625;28;20036;-72
2022/01/04 09:50:36;;;;;;;10.45;1.40;;;;;;;;;;5083018;28;20050;-73
2022/01/04 09:53:02;;;;;;;9.02;1.00;;;;;;;;;;5083520;28;20044;-72
2022/01/04 09:55:28;;;;;;;6.15;0.80;;;;;;;;;;5082819;28;20483;-74
2022/01/04 09:57:55;;;;;;;9.02;0.88;;;;;;;;;;5063422;28;20047;-73
2022/01/04 10:00:21;;;;;;;7.20;1.25;;;;;;;;;;5085885;28;20036;-72
2022/01/04 10:02:50;;;;;;;9.85;1.23;;;;;;;;;;5080233;28;20043;-79
2022/01/04 10:05:16;;;;;;;5.07;1.27;;;;;;;;;;5085941;28;20101;-73
2022/01/04 10:07:42;;;;;;;8.27;1.50;;;;;;;;;;5086904;28;20046;-73
2022/01/04 10:10:12;;;;;;;7.88;1.20;;;;;;;;;;5070140;28;20056;-72
2022/01/04 10:12:52;;;;;;;8.98;1.20;;;;;;;;;;5084955;28;20089;-73
2022/01/04 10:15:37;;;;;;;6.80;1.02;;;;;;;;;;5068154;28;20124;-72
2022/01/04 10:18:04;;;;;;;8.05;0.93;;;;;;;;;;5082256;28;20048;-72
2022/01/04 10:20:31;;;;;;;5.00;0.65;;;;;;;;;;5086767;28;20544;-72
2022/01/04 10:22:57;;;;;;;7.47;0.68;;;;;;;;;;5085631;28;20134;-71
2022/01/04 10:25:23;;;;;;;7.20;0.70;;;;;;;;;;5051987;28;20391;-73
2022/01/04 10:27:50;;;;;;;2.75;0.60;;;;;;;;;;5068684;28;20051;-80
2022/01/04 10:30:22;;;;;;;6.25;0.80;;;;;;;;;;5085636;28;20101;-75
2022/01/04 10:32:55;;;;;;;6.82;1.20;;;;;;;;;;5081676;28;20052;-72
2022/01/04 10:35:29;;;;;;;5.97;0.77;;;;;;;;;;5116138;27;20051;-78
2022/01/04 10:37:56;;;;;;;5.45;0.75;;;;;;;;;;5087090;28;20032;-72
2022/01/04 10:40:22;;;;;;;8.35;0.88;;;;;;;;;;5070891;28;20048;-71
2022/01/04 10:42:48;;;;;;;6.90;0.75;;;;;;;;;;5068197;28;20032;-75
2022/01/04 10:45:21;;;;;;;8.40;1.08;;;;;;;;;;5086094;28;20127;-72
2022/01/04 10:47:47;;;;;;;2.80;1.15;;;;;;;;;;5086410;28;20043;-73
2022/01/04 10:50:13;;;;;;;6.28;0.95;;;;;;;;;;5118110;27;20040;-71
2022/01/04 10:52:39;;;;;;;5.40;1.00;;;;;;;;;;5086540;28;20059;-72
2022/01/04 10:55:13;;;;;;;5.88;1.02;;;;;;;;;;5089374;28;20486;-72
2022/01/04 10:57:39;;;;;;;8.57;0.93;;;;;;;;;;5117810;27;20036;-73
2022/01/04 11:00:15;;;;;;;4.90;1.08;;;;;;;;;;5086826;28;20461;-72
2022/01/04 11:02:41;;;;;;;5.70;1.00;;;;;;;;;;5085079;28;20048;-72
2022/01/04 11:05:14;;;;;;;6.60;1.20;;;;;;;;;;5068798;28;20048;-73
2022/01/04 11:08:00;;;;;;;4.22;0.70;;;;;;;;;;5065554;28;20048;-72
2022/01/04 11:10:30;;;;;;;7.03;1.00;;;;;;;;;;5087132;28;20064;-72
2022/01/04 11:13:00;;;;;;;8.32;0.88;;;;;;;;;;5083634;28;20085;-75
2022/01/04 11:15:27;;;;;;;10.52;1.30;;;;;;;;;;5068235;28;20112;-72
2022/01/04 11:17:53;;;;;;;11.00;0.93;;;;;;;;;;5063476;28;20052;-73
2022/01/04 11:20:19;;;;;;;20.38;1.73;;;;;;;;;;5066518;28;20424;-77
2022/01/04 11:22:46;;;;;;;9.85;1.15;;;;;;;;;;5082036;28;20158;-75
2022/01/04 11:25:14;;;;;;;8.15;1.75;;;;;;;;;;5053277;28;20055;-76
2022/01/04 11:27:41;;;;;;;8.85;0.70;;;;;;;;;;5086082;28;20052;-72
2022/01/04 11:30:11;;;;;;;7.45;0.80;;;;;;;;;;5084587;28;20097;-73
2022/01/04 11:32:38;;;;;;;5.35;0.88;;;;;;;;;;5085872;28;20043;-72
2022/01/04 11:35:12;;;;;;;7.00;1.10;;;;;;;;;;5085187;28;21035;-74
2022/01/04 11:37:41;;;;;;;;;;;;;;;;;;5089303;28;20044;-72
2022/01/04 11:40:43;;;;;;;3.85;0.88;;;;;;;;;;5087006;28;19920;-73
2022/01/04 11:43:25;;;;;;;2.42;0.60;;;;;;;;;;5075684;28;20464;-71
2022/01/04 11:45:52;;;;;;;5.10;0.63;;;;;;;;;;5078096;28;20510;-73
2022/01/04 11:48:30;;;;;;;4.07;0.50;;;;;;;;;;5065557;28;20040;-71
2022/01/04 11:51:00;;;;;;;9.18;1.23;;;;;;;;;;5065694;28;20283;-82
2022/01/04 11:53:27;;;;;;;5.28;0.80;;;;;;;;;;5060875;28;20189;-74
2022/01/04 11:55:54;;;;;;;4.85;1.02;;;;;;;;;;5068484;28;20052;-73
2022/01/04 11:58:24;;;;;;;4.80;1.00;;;;;;;;;;5079658;28;20048;-73
2022/01/04 12:01:01;;;;;;;7.75;0.88;;;;;;;;;;5060772;28;20189;-72
2022/01/04 12:03:37;;;;;;;7.00;1.00;;;;;;;;;;5080478;28;20645;-70
2022/01/04 12:06:05;;;;;;;5.85;1.10;;;;;;;;;;5112512;27;20044;-71
2022/01/04 12:08:34;;;;;;;8.75;1.27;;;;;;;;;;5086557;28;20093;-73
2022/01/04 12:11:01;;;;;;;6.10;1.20;;;;;;;;;;5081884;28;20040;-71
2022/01/04 12:13:46;;;;;;;7.38;0.90;;;;;;;;;;5085310;28;20052;-72
2022/01/04 12:16:12;;;;;;;10.40;1.38;;;;;;;;;;5064264;28;20052;-71
2022/01/04 12:18:38;;;;;;;12.40;1.13;;;;;;;;;;5099488;28;20153;-71
2022/01/04 12:21:25;;;;;;;6.70;0.93;;;;;;;;;;5083396;28;20044;-72
2022/01/04 12:23:51;;;;;;;7.30;0.98;;;;;;;;;;5080788;28;20079;-74
2022/01/04 12:26:17;;;;;;;7.57;0.93;;;;;;;;;;5053616;28;20048;-74
2022/01/04 12:28:43;;;;;;;10.10;1.40;;;;;;;;;;5088279;28;20047;-75
2022/01/04 12:31:16;;;;;;;9.43;1.45;;;;;;;;;;5086522;28;20048;-71
2022/01/04 12:33:47;;;;;;;8.95;1.23;;;;;;;;;;5085048;28;20108;-75
2022/01/04 12:36:26;;;;;;;11.00;1.70;;;;;;;;;;5081359;28;20036;-72
2022/01/04 12:38:53;;;;;;;10.32;2.03;;;;;;;;;;5084176;28;20040;-73
2022/01/04 12:41:19;;;;;;;7.60;1.25;;;;;;;;;;5066807;28;20036;-76
2022/01/04 12:43:47;;;;;;;6.72;1.42;;;;;;;;;;5081054;28;20054;-74
2022/01/04 12:46:14;;;;;;;7.07;1.33;;;;;;;;;;5094916;28;20554;-76
2022/01/04 12:48:44;;;;;;;8.57;1.65;;;;;;;;;;5079185;28;20049;-74
2022/01/04 12:51:29;;;;;;;10.00;1.40;;;;;;;;;;5064148;28;20135;-75
2022/01/04 12:53:58;;;;;;;12.55;1.60;;;;;;;;;;5060577;28;20052;-77
2022/01/04 12:56:24;;;;;;;11.30;1.70;;;;;;;;;;5110482;28;20053;-74
2022/01/04 12:58:50;;;;;;;7.00;1.45;;;;;;;;;;5065058;28;20079;-77
2022/01/04 13:01:28;;;;;;;9.93;1.42;;;;;;;;;;5084846;28;20092;-77
2022/01/04 13:03:54;;;;;;;12.63;1.42;;;;;;;;;;5081402;28;20051;-75
2022/01/04 13:06:21;;;;;;;7.53;1.40;;;;;;;;;;5083428;28;20047;-76
2022/01/04 13:08:54;;;;;;;12.55;1.42;;;;;;;;;;5117595;28;20054;-74
2022/01/04 13:11:21;;;;;;;8.68;1.58;;;;;;;;;;5080088;28;20111;-74
2022/01/04 13:13:57;;;;;;;7.72;1.30;;;;;;;;;;5080578;28;20182;-79
2022/01/04 13:16:25;;;;;;;9.68;1.73;;;;;;;;;;5085077;28;20139;-74
2022/01/04 13:18:52;;;;;;;13.05;2.67;;;;;;;;;;5114337;28;20041;-74
2022/01/04 13:21:18;;;;;;;9.43;1.38;;;;;;;;;;5068158;28;20386;-74
2022/01/04 13:23:45;;;;;;;9.98;1.25;;;;;;;;;;5084326;28;20106;-74
2022/01/04 13:26:12;;;;;;;11.32;1.95;;;;;;;;;;5064640;28;20057;-74
2022/01/04 13:28:38;;;;;;;10.38;1.27;;;;;;;;;;5081752;28;20510;-74
2022/01/04 13:31:05;;;;;;;12.80;1.10;;;;;;;;;;5081049;28;20139;-80
2022/01/04 13:33:32;;;;;;;10.82;1.70;;;;;;;;;;5081603;28;20103;-74
2022/01/04 13:35:59;;;;;;;9.60;1.65;;;;;;;;;;5083425;28;20044;-73
2022/01/04 13:38:27;;;;;;;7.90;1.08;;;;;;;;;;5083836;28;20253;-75
2022/01/04 13:40:55;;;;;;;7.28;1.98;;;;;;;;;;5083566;28;20040;-74
2022/01/04 13:43:29;;;;;;;8.68;1.77;;;;;;;;;;5085779;28;20055;-75
2022/01/04 13:45:55;;;;;;;;;;;;;;;;;;5085091;28;20044;-75
2022/01/04 13:48:26;;;;;;;17.92;3.63;;;;;;;;;;5084098;28;19920;-75
2022/01/04 13:50:53;;;;;;;10.90;1.25;;;;;;;;;;5069950;28;20503;-74
2022/01/04 13:53:20;;;;;;;7.82;1.10;;;;;;;;;;5053685;28;20055;-74
2022/01/04 13:55:49;;;;;;;8.95;1.23;;;;;;;;;;5085126;28;20036;-77
2022/01/04 13:58:33;;;;;;;11.23;1.52;;;;;;;;;;5073185;28;20165;-78
2022/01/04 14:01:12;;;;;;;7.18;1.35;;;;;;;;;;5073811;28;20044;-73
2022/01/04 14:03:38;;;;;;;9.07;1.10;;;;;;;;;;5085426;28;20483;-74
2022/01/04 14:06:04;;;;;;;9.02;1.65;;;;;;;;;;5062170;28;20509;-78
2022/01/04 14:08:49;;;;;;;7.00;0.93;;;;;;;;;;5069437;28;20407;-78
2022/01/04 14:11:23;;;;;;;10.45;1.45;;;;;;;;;;5085062;28;20052;-76
2022/01/04 14:13:50;;;;;;;9.93;1.73;;;;;;;;;;5070151;28;20051;-83
2022/01/04 14:16:16;;;;;;;6.70;1.73;;;;;;;;;;5086977;28;20040;-78
2022/01/04 14:19:05;;;;;;;9.80;1.35;;;;;;;;;;5083564;28;20055;-77
2022/01/04 14:21:35;;;;;;;10.23;1.75;;;;;;;;;;5087148;28;20036;-77
2022/01/04 14:24:02;;;;;;;11.32;1.73;;;;;;;;;;5086577;28;20113;-77
2022/01/04 14:26:28;;;;;;;11.52;1.67;;;;;;;;;;5070652;28;20078;-77
2022/01/04 14:28:55;;;;;;;6.95;1.45;;;;;;;;;;5088298;28;20162;-76
2022/01/04 14:31:21;;;;;;;10.85;1.63;;;;;;;;;;5069491;28;20476;-77
2022/01/04 14:33:47;;;;;;;8.85;1.23;;;;;;;;;;5091201;28;20052;-76
2022/01/04 14:36:13;;;;;;;13.63;1.90;;;;;;;;;;5054799;28;20087;-78
2022/01/04 14:38:39;;;;;;;7.15;1.27;;;;;;;;;;5086399;28;20051;-76
2022/01/04 14:41:05;;;;;;;8.25;1.92;;;;;;;;;;5069562;28;20040;-80